Etusivu
METAR-TAF:

METAR-TAF

Lentoasemat :

Morristown, Tennessee, Yhdysvallat

Leveyspiiri: 36-10-46N, Pituuspiiri: 083-22-32W, korkeus merenpinnasta: 400 m

Tämänhetkinen sää

Tämä raportti tehtiin 34 minuuttia sitten, kello 15.15 UTC
Tuuli 3 kn koillisesta
Lämpötila 2°C
Kosteus 64%
Ilmanpaine 1032 hPa
Näkyvyys: 16.1 km
selkeää

METAR: KMOR 221515Z AUTO 05003KT 10SM CLR 02/M04 A3047 RMK A01

Aika: 09:49 (15:49 UTC)


TAF: puuttuu

Säähavainnot ja -ennusteet yli 4000 lentoasemalta (METAR- ja TAF-raportit).

Käytössä olevat sääasemat on merkitty karttaan keltaisilla ja punaisilla pisteillä.

Aseta hiiri pisteen päälle nähdäksesi sääaseman nimen.

Klikkaa sitten nähdäksesi säähavainnot ja -ennusteet.

Kartan vaihtaminen: klikkaa mustalla rastilla varustettuja vihreitä pisteitä, niin voit zoomata sisään; viivalla varustettua vihreää pistettä, niin voit zoomata ulos tai vihreitä nuolia, niin pääset viereisille kartoille.


METAR-TAF: